createdAt,value
2022-08-26T00:02:07.153Z,70.42
2022-08-26T00:04:35.245Z,69.92
2022-08-26T00:07:03.241Z,70.72
2022-08-26T00:09:39.027Z,70.33
2022-08-26T00:12:12.226Z,69.90
2022-08-26T00:14:41.684Z,69.80
2022-08-26T00:17:09.677Z,70.18
2022-08-26T00:19:37.608Z,70.35
2022-08-26T00:22:05.791Z,69.82
2022-08-26T00:24:33.693Z,70.23
2022-08-26T00:27:01.586Z,70.27
2022-08-26T00:29:32.027Z,69.77
2022-08-26T00:32:06.259Z,69.84
2022-08-26T00:34:35.339Z,70.63
2022-08-26T00:37:03.740Z,70.48
2022-08-26T00:39:37.025Z,70.78
2022-08-26T00:42:05.629Z,70.46
2022-08-26T00:44:35.210Z,70.50
2022-08-26T00:47:08.830Z,70.24
2022-08-26T00:49:40.022Z,70.71
2022-08-26T00:52:11.955Z,70.54
2022-08-26T00:54:46.985Z,70.69
2022-08-26T00:57:19.032Z,70.66
2022-08-26T00:59:52.271Z,70.46
2022-08-26T01:02:21.512Z,70.78
2022-08-26T01:04:54.230Z,70.98
2022-08-26T01:07:26.324Z,70.99
2022-08-26T01:09:55.994Z,70.63
2022-08-26T01:12:24.874Z,70.88
2022-08-26T01:14:55.168Z,71.48
2022-08-26T01:17:23.857Z,70.91
2022-08-26T01:19:55.372Z,70.73
2022-08-26T01:22:28.648Z,70.72
2022-08-26T01:24:59.708Z,70.67
2022-08-26T01:27:32.711Z,70.73
2022-08-26T01:30:02.948Z,69.99
2022-08-26T01:32:33.944Z,70.02
2022-08-26T01:35:04.448Z,70.05
2022-08-26T01:37:37.255Z,69.82
2022-08-26T01:40:17.538Z,69.52
2022-08-26T01:42:46.699Z,70.18
2022-08-26T01:45:19.646Z,69.87
2022-08-26T01:47:49.312Z,69.89
2022-08-26T01:50:30.252Z,70.23
2022-08-26T01:53:02.120Z,70.49
2022-08-26T01:55:33.303Z,70.33
2022-08-26T01:58:05.743Z,70.41
2022-08-26T02:00:35.929Z,70.95
2022-08-26T02:03:18.772Z,70.85
2022-08-26T02:05:51.544Z,70.77
2022-08-26T02:08:24.787Z,70.81
2022-08-26T02:10:56.141Z,71.07
2022-08-26T02:13:27.475Z,71.05
2022-08-26T02:15:56.252Z,70.87
2022-08-26T02:18:25.912Z,70.76
2022-08-26T02:20:55.930Z,70.86
2022-08-26T02:23:24.472Z,71.23
2022-08-26T02:25:59.434Z,71.02
2022-08-26T02:28:30.000Z,70.52
2022-08-26T02:30:57.986Z,70.13
2022-08-26T02:33:29.275Z,70.76
2022-08-26T02:35:57.904Z,70.93
2022-08-26T02:38:26.078Z,70.21
2022-08-26T02:40:55.247Z,70.28
2022-08-26T02:43:31.205Z,70.41
2022-08-26T02:46:01.947Z,70.17
2022-08-26T02:48:30.526Z,70.55
2022-08-26T02:51:00.184Z,71.19
2022-08-26T02:53:28.089Z,71.68
2022-08-26T02:56:01.434Z,71.17
2022-08-26T02:58:29.269Z,71.33
2022-08-26T03:00:57.164Z,71.93
2022-08-26T03:03:25.326Z,71.33
2022-08-26T03:05:53.332Z,71.87
2022-08-26T03:08:22.276Z,71.43
2022-08-26T03:10:51.015Z,71.60
2022-08-26T03:13:20.228Z,71.52
2022-08-26T03:15:48.193Z,71.57
2022-08-26T03:18:16.240Z,71.59
2022-08-26T03:20:44.129Z,71.42
2022-08-26T03:23:12.578Z,71.38
2022-08-26T03:25:40.653Z,71.29
2022-08-26T03:28:09.721Z,71.28
2022-08-26T03:30:44.756Z,71.29
2022-08-26T03:33:14.806Z,71.34
2022-08-26T03:35:45.440Z,71.59
2022-08-26T03:38:13.281Z,71.53
2022-08-26T03:40:43.430Z,71.75
2022-08-26T03:43:12.358Z,71.94
2022-08-26T03:45:41.910Z,72.05
2022-08-26T03:48:11.406Z,71.64
2022-08-26T03:50:40.012Z,71.57
2022-08-26T03:53:08.825Z,71.33
2022-08-26T03:55:42.326Z,71.39
2022-08-26T03:58:11.166Z,71.34
2022-08-26T04:00:39.406Z,71.30
2022-08-26T04:03:09.930Z,71.33
2022-08-26T04:05:38.487Z,71.22
2022-08-26T04:08:06.443Z,71.09
2022-08-26T04:10:34.340Z,71.57
2022-08-26T04:13:02.427Z,71.98
2022-08-26T04:15:30.388Z,72.03
2022-08-26T04:17:58.332Z,71.94
2022-08-26T04:20:28.988Z,71.84
2022-08-26T04:22:56.797Z,71.94
2022-08-26T04:25:24.981Z,71.34
2022-08-26T04:27:53.138Z,71.45
2022-08-26T04:30:21.888Z,71.08
2022-08-26T04:32:51.051Z,70.85
2022-08-26T04:35:25.434Z,70.69
2022-08-26T04:37:56.067Z,70.59
2022-08-26T04:40:26.558Z,70.22
2022-08-26T04:42:54.753Z,69.69
2022-08-26T04:45:23.091Z,69.69
2022-08-26T04:47:54.580Z,69.44
2022-08-26T04:50:23.664Z,68.83
2022-08-26T04:52:52.838Z,68.98
2022-08-26T04:55:21.974Z,68.55
2022-08-26T04:58:08.720Z,68.95
2022-08-26T05:00:39.055Z,68.21
2022-08-26T05:03:07.754Z,67.35
2022-08-26T05:05:40.900Z,67.24
2022-08-26T05:08:09.141Z,66.31
2022-08-26T05:10:42.788Z,65.50
2022-08-26T05:13:15.139Z,65.92
2022-08-26T05:15:44.150Z,65.53
2022-08-26T05:18:13.844Z,66.02
2022-08-26T05:20:43.444Z,65.56
2022-08-26T05:23:11.375Z,65.58
2022-08-26T05:25:41.936Z,65.36
2022-08-26T05:28:10.164Z,65.60
2022-08-26T05:30:39.980Z,65.10
2022-08-26T05:33:09.598Z,65.34
2022-08-26T05:35:39.533Z,65.24
2022-08-26T05:38:12.664Z,64.93
2022-08-26T05:40:45.470Z,65.00
2022-08-26T05:43:14.260Z,64.99
2022-08-26T05:45:46.249Z,65.31
2022-08-26T05:48:16.445Z,65.94
2022-08-26T05:50:46.400Z,65.99
2022-08-26T05:53:16.391Z,66.38
2022-08-26T05:55:48.307Z,66.21
2022-08-26T05:58:17.450Z,65.63
2022-08-26T06:00:45.577Z,65.43
2022-08-26T06:03:13.625Z,65.05
2022-08-26T06:05:42.310Z,65.51
2022-08-26T06:08:14.077Z,65.33
2022-08-26T06:10:51.257Z,66.34
2022-08-26T06:13:25.835Z,65.44
2022-08-26T06:15:54.667Z,64.28
2022-08-26T06:18:27.374Z,64.48
2022-08-26T06:20:58.360Z,64.25
2022-08-26T06:23:45.679Z,64.90
2022-08-26T06:26:16.069Z,64.55
2022-08-26T06:28:45.595Z,64.69
2022-08-26T06:31:14.560Z,63.77
2022-08-26T06:33:43.786Z,62.24
2022-08-26T06:36:18.592Z,61.72
2022-08-26T06:38:47.870Z,62.04
2022-08-26T06:41:18.122Z,60.61
2022-08-26T06:43:46.063Z,60.36
2022-08-26T06:46:17.197Z,58.94
2022-08-26T06:48:45.553Z,58.13
2022-08-26T06:51:15.939Z,57.96
2022-08-26T06:53:46.974Z,57.45
2022-08-26T06:56:20.194Z,56.88
2022-08-26T06:58:48.003Z,56.97
2022-08-26T07:01:18.233Z,55.00
2022-08-26T07:03:48.561Z,44.79
2022-08-26T07:06:19.327Z,35.41
2022-08-26T07:08:47.104Z,30.85
2022-08-26T07:11:17.325Z,30.32
2022-08-26T07:13:45.043Z,31.28
2022-08-26T07:16:18.998Z,27.10
2022-08-26T07:18:48.520Z,24.71
2022-08-26T07:21:18.332Z,21.86
2022-08-26T07:23:47.114Z,22.11
2022-08-26T07:26:19.620Z,19.86
2022-08-26T07:28:50.643Z,20.09
2022-08-26T07:31:23.499Z,18.26
2022-08-26T07:33:52.281Z,21.33
2022-08-26T07:36:22.854Z,20.36
2022-08-26T07:38:50.678Z,21.46
2022-08-26T07:41:22.845Z,19.72
2022-08-26T07:43:51.156Z,21.85
2022-08-26T07:46:26.946Z,22.94
2022-08-26T07:48:56.751Z,18.27
2022-08-26T07:51:24.825Z,17.21
2022-08-26T07:53:54.205Z,21.75
2022-08-26T07:56:24.007Z,18.51
2022-08-26T07:58:53.719Z,20.61
2022-08-26T08:01:23.655Z,20.04
2022-08-26T08:03:53.290Z,20.11
2022-08-26T08:06:22.060Z,18.44
2022-08-26T08:08:51.694Z,24.16
2022-08-26T08:11:20.475Z,22.96
2022-08-26T08:13:50.048Z,24.08
2022-08-26T08:16:24.376Z,24.34
2022-08-26T08:18:52.396Z,21.89
2022-08-26T08:21:21.133Z,21.52
2022-08-26T08:23:51.853Z,20.49
2022-08-26T08:26:19.773Z,17.29
2022-08-26T08:28:49.183Z,19.68
2022-08-26T08:31:38.666Z,22.17
2022-08-26T08:34:10.210Z,22.03
2022-08-26T08:36:38.511Z,20.45
2022-08-26T08:39:06.611Z,23.81
2022-08-26T08:42:12.562Z,24.61
2022-08-26T08:44:45.469Z,19.61
2022-08-26T08:47:26.669Z,18.04
2022-08-26T08:50:00.257Z,21.44
2022-08-26T08:52:31.716Z,22.45
2022-08-26T08:54:59.627Z,23.01
2022-08-26T08:57:39.443Z,23.89
2022-08-26T09:00:16.884Z,21.01
2022-08-26T09:02:52.351Z,21.42
2022-08-26T09:05:24.399Z,20.73
2022-08-26T09:07:58.414Z,21.43
2022-08-26T09:10:36.588Z,24.26
2022-08-26T09:13:09.392Z,22.26
2022-08-26T09:15:51.570Z,21.98
2022-08-26T09:18:33.049Z,26.18
2022-08-26T09:21:03.531Z,26.05
2022-08-26T09:23:32.942Z,25.86
2022-08-26T09:26:13.729Z,24.14
2022-08-26T09:28:43.772Z,24.56
2022-08-26T09:31:15.827Z,25.02
2022-08-26T09:33:44.631Z,27.82
2022-08-26T09:36:22.738Z,25.95
2022-08-26T09:38:53.847Z,24.52
2022-08-26T09:41:25.796Z,24.91
2022-08-26T09:44:14.522Z,24.75
2022-08-26T09:46:52.303Z,28.10
2022-08-26T09:49:36.577Z,27.09
2022-08-26T09:52:21.689Z,26.04
2022-08-26T09:55:02.261Z,26.68
2022-08-26T09:57:34.417Z,26.06
2022-08-26T10:00:02.902Z,26.40
2022-08-26T10:02:47.910Z,24.16
2022-08-26T10:05:28.243Z,27.44
2022-08-26T10:07:58.657Z,24.61
2022-08-26T10:10:33.483Z,23.92
2022-08-26T10:13:08.088Z,24.54
2022-08-26T10:15:50.062Z,26.53
2022-08-26T10:18:25.068Z,26.65
2022-08-26T10:20:58.794Z,27.59
2022-08-26T10:23:32.884Z,27.24
2022-08-26T10:26:06.924Z,26.08
2022-08-26T10:28:41.339Z,28.15
2022-08-26T10:31:27.889Z,28.87
2022-08-26T10:34:00.450Z,31.54
2022-08-26T10:39:47.949Z,25.51
2022-08-26T10:42:25.170Z,26.97
2022-08-26T10:45:00.165Z,27.47
2022-08-26T10:47:35.742Z,28.59
2022-08-26T10:50:06.708Z,27.24
2022-08-26T10:52:46.747Z,28.30
2022-08-26T10:55:20.815Z,31.93
2022-08-26T10:57:55.997Z,32.45
2022-08-26T11:00:48.159Z,32.09
2022-08-26T11:03:35.651Z,32.15
2022-08-26T11:06:22.622Z,29.54
2022-08-26T11:08:53.035Z,30.35
2022-08-26T11:11:57.661Z,33.96
2022-08-26T11:14:53.590Z,34.14
2022-08-26T11:17:56.963Z,34.64
2022-08-26T11:20:39.096Z,36.55
2022-08-26T11:23:50.552Z,35.91
2022-08-26T11:26:35.369Z,36.70
2022-08-26T11:29:12.231Z,36.94
2022-08-26T11:31:57.610Z,36.25
2022-08-26T11:34:55.159Z,36.02
2022-08-26T11:37:30.976Z,34.73
2022-08-26T11:40:04.837Z,35.12
2022-08-26T11:42:39.450Z,32.76
2022-08-26T11:45:18.013Z,32.85
2022-08-26T11:47:46.588Z,32.73
2022-08-26T11:50:20.738Z,31.88
2022-08-26T11:52:53.855Z,32.93
2022-08-26T11:55:24.098Z,33.36
2022-08-26T11:57:55.618Z,36.16
2022-08-26T12:00:26.449Z,36.37
2022-08-26T12:02:55.627Z,37.00
2022-08-26T12:05:31.203Z,37.93
2022-08-26T12:08:05.158Z,39.66
2022-08-26T12:10:35.898Z,38.81
2022-08-26T12:13:06.221Z,38.93
2022-08-26T12:15:35.822Z,37.87
2022-08-26T12:18:20.704Z,37.86
2022-08-26T12:20:59.784Z,35.67
2022-08-26T12:23:37.919Z,32.26
2022-08-26T12:26:11.920Z,33.16
2022-08-26T12:28:44.743Z,33.08
2022-08-26T12:31:12.620Z,33.10
2022-08-26T12:33:46.482Z,33.22
2022-08-26T12:36:22.603Z,32.11
2022-08-26T12:38:50.686Z,31.97
2022-08-26T12:41:48.206Z,34.75
2022-08-26T12:44:36.839Z,32.33
2022-08-26T12:47:09.183Z,33.61
2022-08-26T12:49:37.693Z,34.18
2022-08-26T12:52:06.935Z,34.27
2022-08-26T12:54:56.731Z,32.16
2022-08-26T12:57:30.062Z,32.93
2022-08-26T13:00:34.102Z,35.61
2022-08-26T13:03:02.712Z,37.17
2022-08-26T13:05:35.143Z,37.42
2022-08-26T13:08:14.586Z,37.25
2022-08-26T13:10:44.777Z,37.39
2022-08-26T13:13:14.113Z,37.86
2022-08-26T13:15:41.971Z,37.78
2022-08-26T13:18:09.836Z,38.08
2022-08-26T13:20:43.924Z,38.09
2022-08-26T13:23:12.092Z,38.17
2022-08-26T13:25:40.115Z,39.94
2022-08-26T13:28:08.004Z,39.12
2022-08-26T13:30:37.271Z,38.04
2022-08-26T13:33:05.799Z,38.37
2022-08-26T13:35:35.068Z,37.46
2022-08-26T13:38:03.661Z,36.85
2022-08-26T13:40:34.623Z,36.81
2022-08-26T13:43:02.855Z,37.40
2022-08-26T13:45:31.499Z,35.90
2022-08-26T13:48:00.784Z,36.68
2022-08-26T13:50:28.590Z,37.29
2022-08-26T13:52:56.429Z,37.81
2022-08-26T13:55:24.254Z,38.49
2022-08-26T13:57:52.242Z,38.44
2022-08-26T14:00:20.454Z,37.38
2022-08-26T14:02:48.776Z,39.16
2022-08-26T14:05:18.104Z,38.19
2022-08-26T14:07:46.146Z,38.01
2022-08-26T14:10:13.981Z,38.21
2022-08-26T14:12:42.274Z,38.67
2022-08-26T14:15:11.199Z,43.99
2022-08-26T14:17:40.035Z,49.88
2022-08-26T14:20:10.739Z,50.86
2022-08-26T14:22:57.473Z,55.15
2022-08-26T14:25:33.584Z,52.31
2022-08-26T14:28:01.601Z,53.16
2022-08-26T14:30:29.707Z,53.33
2022-08-26T14:33:00.443Z,54.87
2022-08-26T14:35:31.693Z,56.76
2022-08-26T14:38:01.060Z,57.12
2022-08-26T14:40:32.015Z,55.98
2022-08-26T14:43:02.636Z,56.28
2022-08-26T14:45:31.765Z,55.74
2022-08-26T14:47:59.821Z,55.98
2022-08-26T14:50:27.991Z,57.49
2022-08-26T14:53:13.665Z,54.99
2022-08-26T14:55:43.400Z,51.90
2022-08-26T14:58:11.238Z,52.17
2022-08-26T15:00:39.973Z,51.20
2022-08-26T15:03:08.407Z,47.60
2022-08-26T15:05:36.403Z,50.63
2022-08-26T15:08:10.362Z,49.92
2022-08-26T15:10:38.826Z,50.87
2022-08-26T15:13:07.998Z,51.21
2022-08-26T15:15:36.000Z,51.94
2022-08-26T15:18:03.994Z,53.08
2022-08-26T15:23:07.475Z,53.01
2022-08-26T15:25:35.507Z,54.86
2022-08-26T15:28:03.751Z,54.10
2022-08-26T15:30:33.579Z,56.24
2022-08-26T15:33:03.018Z,56.46
2022-08-26T15:35:33.491Z,57.61
2022-08-26T15:38:06.617Z,58.46
2022-08-26T15:40:34.503Z,56.95
2022-08-26T15:43:18.540Z,55.40
2022-08-26T15:45:53.737Z,57.22
2022-08-26T15:48:22.139Z,57.52
2022-08-26T15:50:51.875Z,56.40
2022-08-26T15:53:19.684Z,56.00
2022-08-26T15:55:47.545Z,59.41
2022-08-26T15:58:16.836Z,61.64
2022-08-26T16:00:45.410Z,62.54
2022-08-26T16:03:14.705Z,63.08
2022-08-26T16:05:44.022Z,62.74
2022-08-26T16:08:12.512Z,63.00
2022-08-26T16:10:49.213Z,62.27
2022-08-26T16:13:19.805Z,61.39
2022-08-26T16:15:48.403Z,60.34
2022-08-26T16:18:17.677Z,61.95
2022-08-26T16:21:10.294Z,62.00
2022-08-26T16:23:39.165Z,68.14
2022-08-26T16:26:10.418Z,70.09
2022-08-26T16:28:39.312Z,68.05
2022-08-26T16:31:07.391Z,68.76
2022-08-26T16:33:38.021Z,69.03
2022-08-26T16:36:07.232Z,69.97
2022-08-26T16:38:35.737Z,69.69
2022-08-26T16:41:03.662Z,69.82
2022-08-26T16:43:31.475Z,67.14
2022-08-26T16:45:59.555Z,66.89
2022-08-26T16:48:27.555Z,67.12
2022-08-26T16:50:56.753Z,68.44
2022-08-26T16:53:24.783Z,69.61
2022-08-26T16:55:52.822Z,69.87
2022-08-26T16:58:22.270Z,69.19
2022-08-26T17:00:50.817Z,70.13
2022-08-26T17:03:18.705Z,70.66
2022-08-26T17:05:46.535Z,72.34
2022-08-26T17:08:27.453Z,71.06
2022-08-26T17:10:57.353Z,71.50
2022-08-26T17:13:35.032Z,71.03
2022-08-26T17:16:05.362Z,71.65
2022-08-26T17:18:34.607Z,70.91
2022-08-26T17:21:04.293Z,70.89
2022-08-26T17:23:33.723Z,72.05
2022-08-26T17:26:01.582Z,72.09
2022-08-26T17:28:29.446Z,71.86
2022-08-26T17:30:58.192Z,71.71
2022-08-26T17:33:27.523Z,72.28
2022-08-26T17:35:56.881Z,71.93
2022-08-26T17:38:25.523Z,71.84
2022-08-26T17:40:54.921Z,71.31
2022-08-26T17:43:22.912Z,70.55
2022-08-26T17:45:50.943Z,70.78
2022-08-26T17:48:18.958Z,70.12
2022-08-26T17:50:49.543Z,69.78
2022-08-26T17:54:13.751Z,70.10
2022-08-26T17:56:43.162Z,70.49
2022-08-26T17:59:11.235Z,69.74
2022-08-26T18:01:40.764Z,69.53
2022-08-26T18:04:08.740Z,68.88
2022-08-26T18:06:38.202Z,68.96
2022-08-26T18:09:06.453Z,70.26
2022-08-26T18:11:34.274Z,73.32
2022-08-26T18:14:03.425Z,75.74
2022-08-26T18:16:38.144Z,76.69
2022-08-26T18:19:06.877Z,77.80
2022-08-26T18:21:36.166Z,78.54
2022-08-26T18:24:04.852Z,78.51
2022-08-26T18:26:34.825Z,77.73
2022-08-26T18:29:03.977Z,79.47
2022-08-26T18:31:32.647Z,77.45
2022-08-26T18:34:04.504Z,76.62
2022-08-26T18:36:34.911Z,76.52
2022-08-26T18:39:04.751Z,76.64
2022-08-26T18:41:34.850Z,75.31
2022-08-26T18:44:04.729Z,76.26
2022-08-26T18:46:32.597Z,75.29
2022-08-26T18:49:00.596Z,74.99
2022-08-26T18:51:30.631Z,75.29
2022-08-26T18:53:59.424Z,75.25
2022-08-26T18:56:27.894Z,73.48
2022-08-26T18:58:55.738Z,74.10
2022-08-26T19:01:27.528Z,74.05
2022-08-26T19:03:56.130Z,74.11
2022-08-26T19:06:25.685Z,74.41
2022-08-26T19:08:53.762Z,73.76
2022-08-26T19:11:32.380Z,72.67
2022-08-26T19:14:07.464Z,72.83
2022-08-26T19:16:38.733Z,74.19
2022-08-26T19:19:07.217Z,75.98
2022-08-26T19:21:36.867Z,75.84
2022-08-26T19:24:09.346Z,74.95
2022-08-26T19:26:38.927Z,76.15
2022-08-26T19:29:06.868Z,75.09
2022-08-26T19:31:36.368Z,75.57
2022-08-26T19:34:07.347Z,74.88
2022-08-26T19:36:35.981Z,73.34
2022-08-26T19:39:07.699Z,73.31
2022-08-26T19:41:38.015Z,73.15
2022-08-26T19:44:09.246Z,73.68
2022-08-26T19:49:12.127Z,73.25
2022-08-26T19:51:40.075Z,73.38
2022-08-26T19:54:07.966Z,72.57
2022-08-26T19:56:36.533Z,73.48
2022-08-26T19:59:04.491Z,75.51
2022-08-26T20:01:32.325Z,75.49
2022-08-26T20:04:01.638Z,74.44
2022-08-26T20:06:29.476Z,74.21
2022-08-26T20:08:57.375Z,74.66
2022-08-26T20:11:25.544Z,74.78
2022-08-26T20:13:53.456Z,74.21
2022-08-26T20:16:21.574Z,74.33
2022-08-26T20:19:07.246Z,74.56
2022-08-26T20:21:40.729Z,74.30
2022-08-26T20:24:13.400Z,74.78
2022-08-26T20:26:43.630Z,73.64
2022-08-26T20:29:13.215Z,74.67
2022-08-26T20:31:45.345Z,74.25
2022-08-26T20:34:16.396Z,74.27
2022-08-26T20:36:47.720Z,74.01
2022-08-26T20:39:16.696Z,74.04
2022-08-26T20:41:45.425Z,73.61
2022-08-26T20:44:14.436Z,74.18
2022-08-26T20:46:42.571Z,74.61
2022-08-26T20:49:10.756Z,74.85
2022-08-26T20:51:39.124Z,74.33
2022-08-26T20:54:08.716Z,74.57
2022-08-26T20:56:36.809Z,74.35
2022-08-26T20:59:06.822Z,74.93
2022-08-26T21:01:37.109Z,76.02
2022-08-26T21:04:12.218Z,75.44
2022-08-26T21:06:40.255Z,75.16
2022-08-26T21:09:14.680Z,75.45
2022-08-26T21:11:45.118Z,75.41
2022-08-26T21:14:16.762Z,74.91
2022-08-26T21:16:46.278Z,74.52
2022-08-26T21:19:17.937Z,74.76
2022-08-26T21:21:46.478Z,75.04
2022-08-26T21:24:16.225Z,74.90
2022-08-26T21:26:44.116Z,74.25
2022-08-26T21:29:13.512Z,73.72
2022-08-26T21:34:35.244Z,75.84
2022-08-26T21:37:03.587Z,75.38
2022-08-26T21:39:42.484Z,74.60
2022-08-26T21:42:10.235Z,74.63
2022-08-26T21:44:38.107Z,75.14
2022-08-26T21:47:07.117Z,74.56
2022-08-26T21:49:34.932Z,75.04
2022-08-26T21:52:04.561Z,74.96
2022-08-26T21:54:32.870Z,74.55
2022-08-26T21:57:02.087Z,74.47
2022-08-26T21:59:29.979Z,75.80
2022-08-26T22:01:57.999Z,75.61
2022-08-26T22:04:25.896Z,76.71
2022-08-26T22:06:57.564Z,77.14
2022-08-26T22:09:29.075Z,75.83
2022-08-26T22:11:57.437Z,75.19
2022-08-26T22:14:30.482Z,74.76
2022-08-26T22:16:59.821Z,74.74
2022-08-26T22:19:31.814Z,74.26
2022-08-26T22:22:03.944Z,74.29
2022-08-26T22:24:31.748Z,74.09
2022-08-26T22:26:59.588Z,74.43
2022-08-26T22:29:28.687Z,74.56
2022-08-26T22:31:57.481Z,74.67
2022-08-26T22:34:26.239Z,74.73
2022-08-26T22:36:54.098Z,74.63
2022-08-26T22:39:26.604Z,74.63
2022-08-26T22:41:56.791Z,74.61
2022-08-26T22:44:24.811Z,74.57
2022-08-26T22:46:55.063Z,74.77
2022-08-26T22:49:23.836Z,74.73
2022-08-26T22:51:52.157Z,74.61
2022-08-26T22:54:20.038Z,74.76
2022-08-26T22:56:47.816Z,74.40
2022-08-26T22:59:16.315Z,74.11
2022-08-26T23:01:46.414Z,74.33
2022-08-26T23:04:15.685Z,74.93
2022-08-26T23:06:47.473Z,74.85
2022-08-26T23:09:18.331Z,75.00
2022-08-26T23:11:47.721Z,74.89
2022-08-26T23:14:16.389Z,74.74
2022-08-26T23:16:44.319Z,74.58
2022-08-26T23:19:14.026Z,74.69
2022-08-26T23:21:43.299Z,74.32
2022-08-26T23:24:12.225Z,74.40
2022-08-26T23:26:41.439Z,74.57
2022-08-26T23:29:11.459Z,74.68
2022-08-26T23:31:40.724Z,74.77
2022-08-26T23:34:26.522Z,75.01
2022-08-26T23:37:00.217Z,75.23
2022-08-26T23:39:29.037Z,75.31
2022-08-26T23:41:57.364Z,74.96
2022-08-26T23:44:26.476Z,74.79
2022-08-26T23:46:54.289Z,74.80
2022-08-26T23:49:22.243Z,74.32
2022-08-26T23:52:07.567Z,74.27
2022-08-26T23:54:36.816Z,74.76
2022-08-26T23:57:04.779Z,74.67
2022-08-26T23:59:32.776Z,74.85
